sensor_id;sensor_type;location;lat;lon;timestamp;P1;durP1;ratioP1;P2;durP2;ratioP2
26540;SDS011;14206;50.202;10.948;2024-03-06T00:00:12;13.43;;;8.45;;
26540;SDS011;14206;50.202;10.948;2024-03-06T00:02:40;11.40;;;7.68;;
26540;SDS011;14206;50.202;10.948;2024-03-06T00:05:07;10.75;;;6.90;;
26540;SDS011;14206;50.202;10.948;2024-03-06T00:07:35;10.55;;;6.65;;
26540;SDS011;14206;50.202;10.948;2024-03-06T00:10:02;8.75;;;5.85;;
26540;SDS011;14206;50.202;10.948;2024-03-06T00:12:31;11.32;;;7.00;;
26540;SDS011;14206;50.202;10.948;2024-03-06T00:14:58;10.43;;;7.03;;
26540;SDS011;14206;50.202;10.948;2024-03-06T00:17:25;10.30;;;6.65;;
26540;SDS011;14206;50.202;10.948;2024-03-06T00:19:53;12.82;;;7.57;;
26540;SDS011;14206;50.202;10.948;2024-03-06T00:22:20;9.55;;;6.72;;
26540;SDS011;14206;50.202;10.948;2024-03-06T00:24:50;11.70;;;7.10;;
26540;SDS011;14206;50.202;10.948;2024-03-06T00:27:18;14.00;;;8.77;;
26540;SDS011;14206;50.202;10.948;2024-03-06T00:29:46;15.15;;;9.48;;
26540;SDS011;14206;50.202;10.948;2024-03-06T00:32:12;13.95;;;8.73;;
26540;SDS011;14206;50.202;10.948;2024-03-06T00:34:40;12.43;;;8.15;;
26540;SDS011;14206;50.202;10.948;2024-03-06T00:37:07;13.73;;;8.75;;
26540;SDS011;14206;50.202;10.948;2024-03-06T00:39:33;16.20;;;10.15;;
26540;SDS011;14206;50.202;10.948;2024-03-06T00:42:01;14.02;;;9.10;;
26540;SDS011;14206;50.202;10.948;2024-03-06T00:44:28;13.00;;;8.82;;
26540;SDS011;14206;50.202;10.948;2024-03-06T00:46:55;13.38;;;8.30;;
26540;SDS011;14206;50.202;10.948;2024-03-06T00:49:22;11.52;;;7.82;;
26540;SDS011;14206;50.202;10.948;2024-03-06T00:51:49;11.75;;;7.28;;
26540;SDS011;14206;50.202;10.948;2024-03-06T00:54:16;10.23;;;6.88;;
26540;SDS011;14206;50.202;10.948;2024-03-06T00:56:43;12.82;;;7.90;;
26540;SDS011;14206;50.202;10.948;2024-03-06T00:59:10;12.27;;;8.20;;
26540;SDS011;14206;50.202;10.948;2024-03-06T01:01:37;12.00;;;8.07;;
26540;SDS011;14206;50.202;10.948;2024-03-06T01:04:05;14.25;;;8.73;;
26540;SDS011;14206;50.202;10.948;2024-03-06T01:06:33;11.85;;;7.82;;
26540;SDS011;14206;50.202;10.948;2024-03-06T01:09:00;11.93;;;7.97;;
26540;SDS011;14206;50.202;10.948;2024-03-06T01:11:27;11.30;;;7.65;;
26540;SDS011;14206;50.202;10.948;2024-03-06T01:13:55;12.23;;;8.23;;
26540;SDS011;14206;50.202;10.948;2024-03-06T01:16:22;11.07;;;7.38;;
26540;SDS011;14206;50.202;10.948;2024-03-06T01:18:49;11.52;;;7.10;;
26540;SDS011;14206;50.202;10.948;2024-03-06T01:21:16;9.45;;;6.60;;
26540;SDS011;14206;50.202;10.948;2024-03-06T01:23:43;10.77;;;7.05;;
26540;SDS011;14206;50.202;10.948;2024-03-06T01:26:10;10.27;;;6.68;;
26540;SDS011;14206;50.202;10.948;2024-03-06T01:28:38;9.48;;;6.72;;
26540;SDS011;14206;50.202;10.948;2024-03-06T01:31:06;11.07;;;7.07;;
26540;SDS011;14206;50.202;10.948;2024-03-06T01:33:33;11.90;;;7.20;;
26540;SDS011;14206;50.202;10.948;2024-03-06T01:36:00;9.60;;;6.80;;
26540;SDS011;14206;50.202;10.948;2024-03-06T01:38:27;10.95;;;6.93;;
26540;SDS011;14206;50.202;10.948;2024-03-06T01:40:54;10.75;;;7.10;;
26540;SDS011;14206;50.202;10.948;2024-03-06T01:43:21;10.45;;;7.03;;
26540;SDS011;14206;50.202;10.948;2024-03-06T01:45:50;11.00;;;7.00;;
26540;SDS011;14206;50.202;10.948;2024-03-06T01:48:23;10.73;;;6.95;;
26540;SDS011;14206;50.202;10.948;2024-03-06T01:50:54;11.45;;;7.00;;
26540;SDS011;14206;50.202;10.948;2024-03-06T01:53:22;12.32;;;7.80;;
26540;SDS011;14206;50.202;10.948;2024-03-06T01:55:51;12.35;;;7.85;;
26540;SDS011;14206;50.202;10.948;2024-03-06T01:58:18;11.90;;;8.10;;
26540;SDS011;14206;50.202;10.948;2024-03-06T02:00:47;9.98;;;6.60;;
26540;SDS011;14206;50.202;10.948;2024-03-06T02:03:17;12.27;;;8.18;;
26540;SDS011;14206;50.202;10.948;2024-03-06T02:05:46;12.27;;;8.00;;
26540;SDS011;14206;50.202;10.948;2024-03-06T02:08:15;11.07;;;7.28;;
26540;SDS011;14206;50.202;10.948;2024-03-06T02:10:44;10.00;;;6.50;;
26540;SDS011;14206;50.202;10.948;2024-03-06T02:13:13;12.27;;;7.40;;
26540;SDS011;14206;50.202;10.948;2024-03-06T02:15:41;14.98;;;8.23;;
26540;SDS011;14206;50.202;10.948;2024-03-06T02:18:12;11.23;;;6.82;;
26540;SDS011;14206;50.202;10.948;2024-03-06T02:20:39;12.10;;;7.97;;
26540;SDS011;14206;50.202;10.948;2024-03-06T02:23:07;14.32;;;8.20;;
26540;SDS011;14206;50.202;10.948;2024-03-06T02:25:34;11.88;;;7.40;;
26540;SDS011;14206;50.202;10.948;2024-03-06T02:28:02;13.65;;;8.23;;
26540;SDS011;14206;50.202;10.948;2024-03-06T02:30:29;12.20;;;7.72;;
26540;SDS011;14206;50.202;10.948;2024-03-06T02:33:04;11.68;;;7.28;;
26540;SDS011;14206;50.202;10.948;2024-03-06T02:35:35;10.35;;;6.90;;
26540;SDS011;14206;50.202;10.948;2024-03-06T02:38:03;10.45;;;6.65;;
26540;SDS011;14206;50.202;10.948;2024-03-06T02:40:33;9.52;;;6.68;;
26540;SDS011;14206;50.202;10.948;2024-03-06T02:43:01;11.43;;;6.72;;
26540;SDS011;14206;50.202;10.948;2024-03-06T02:45:28;9.63;;;6.45;;
26540;SDS011;14206;50.202;10.948;2024-03-06T02:47:55;10.00;;;6.68;;
26540;SDS011;14206;50.202;10.948;2024-03-06T02:50:22;11.52;;;7.20;;
26540;SDS011;14206;50.202;10.948;2024-03-06T02:52:50;10.88;;;6.95;;
26540;SDS011;14206;50.202;10.948;2024-03-06T02:55:18;10.57;;;6.40;;
26540;SDS011;14206;50.202;10.948;2024-03-06T02:57:45;8.80;;;6.05;;
26540;SDS011;14206;50.202;10.948;2024-03-06T03:00:12;10.35;;;6.47;;
26540;SDS011;14206;50.202;10.948;2024-03-06T03:02:40;10.13;;;6.78;;
26540;SDS011;14206;50.202;10.948;2024-03-06T03:05:07;9.98;;;6.72;;
26540;SDS011;14206;50.202;10.948;2024-03-06T03:07:34;9.82;;;6.35;;
26540;SDS011;14206;50.202;10.948;2024-03-06T03:10:01;11.10;;;6.88;;
26540;SDS011;14206;50.202;10.948;2024-03-06T03:12:28;9.73;;;6.57;;
26540;SDS011;14206;50.202;10.948;2024-03-06T03:14:55;10.07;;;6.40;;
26540;SDS011;14206;50.202;10.948;2024-03-06T03:17:22;11.45;;;7.00;;
26540;SDS011;14206;50.202;10.948;2024-03-06T03:19:49;12.02;;;7.45;;
26540;SDS011;14206;50.202;10.948;2024-03-06T03:22:15;9.57;;;6.57;;
26540;SDS011;14206;50.202;10.948;2024-03-06T03:24:42;11.40;;;6.97;;
26540;SDS011;14206;50.202;10.948;2024-03-06T03:27:09;11.48;;;7.00;;
26540;SDS011;14206;50.202;10.948;2024-03-06T03:29:37;10.45;;;6.85;;
26540;SDS011;14206;50.202;10.948;2024-03-06T03:32:04;10.88;;;6.90;;
26540;SDS011;14206;50.202;10.948;2024-03-06T03:34:33;13.02;;;6.85;;
26540;SDS011;14206;50.202;10.948;2024-03-06T03:37:01;8.98;;;5.95;;
26540;SDS011;14206;50.202;10.948;2024-03-06T03:39:28;11.43;;;6.93;;
26540;SDS011;14206;50.202;10.948;2024-03-06T03:41:55;12.75;;;8.63;;
26540;SDS011;14206;50.202;10.948;2024-03-06T03:44:22;13.35;;;7.95;;
26540;SDS011;14206;50.202;10.948;2024-03-06T03:46:49;11.25;;;7.32;;
26540;SDS011;14206;50.202;10.948;2024-03-06T03:49:17;11.18;;;6.68;;
26540;SDS011;14206;50.202;10.948;2024-03-06T03:51:43;10.88;;;6.93;;
26540;SDS011;14206;50.202;10.948;2024-03-06T03:54:10;9.88;;;6.43;;
26540;SDS011;14206;50.202;10.948;2024-03-06T03:56:37;11.18;;;6.78;;
26540;SDS011;14206;50.202;10.948;2024-03-06T03:59:04;10.60;;;6.50;;
26540;SDS011;14206;50.202;10.948;2024-03-06T04:01:31;11.27;;;6.65;;
26540;SDS011;14206;50.202;10.948;2024-03-06T04:03:58;10.75;;;6.80;;
26540;SDS011;14206;50.202;10.948;2024-03-06T04:06:25;9.88;;;6.85;;
26540;SDS011;14206;50.202;10.948;2024-03-06T04:08:51;11.45;;;6.90;;
26540;SDS011;14206;50.202;10.948;2024-03-06T04:11:18;14.10;;;8.00;;
26540;SDS011;14206;50.202;10.948;2024-03-06T04:13:45;12.70;;;7.97;;
26540;SDS011;14206;50.202;10.948;2024-03-06T04:16:18;13.00;;;8.38;;
26540;SDS011;14206;50.202;10.948;2024-03-06T04:18:46;14.25;;;8.10;;
26540;SDS011;14206;50.202;10.948;2024-03-06T04:21:13;15.77;;;9.80;;
26540;SDS011;14206;50.202;10.948;2024-03-06T04:23:42;13.10;;;8.30;;
26540;SDS011;14206;50.202;10.948;2024-03-06T04:26:10;14.15;;;9.15;;
26540;SDS011;14206;50.202;10.948;2024-03-06T04:28:37;12.57;;;8.15;;
26540;SDS011;14206;50.202;10.948;2024-03-06T04:31:07;14.25;;;8.15;;
26540;SDS011;14206;50.202;10.948;2024-03-06T04:33:34;13.68;;;8.65;;
26540;SDS011;14206;50.202;10.948;2024-03-06T04:36:04;17.23;;;11.00;;
26540;SDS011;14206;50.202;10.948;2024-03-06T04:38:34;17.90;;;11.68;;
26540;SDS011;14206;50.202;10.948;2024-03-06T04:41:01;17.70;;;13.02;;
26540;SDS011;14206;50.202;10.948;2024-03-06T04:43:28;18.33;;;12.77;;
26540;SDS011;14206;50.202;10.948;2024-03-06T04:45:56;18.27;;;11.70;;
26540;SDS011;14206;50.202;10.948;2024-03-06T04:48:23;18.25;;;12.93;;
26540;SDS011;14206;50.202;10.948;2024-03-06T04:50:50;19.20;;;12.88;;
26540;SDS011;14206;50.202;10.948;2024-03-06T04:53:16;17.58;;;12.65;;
26540;SDS011;14206;50.202;10.948;2024-03-06T04:55:43;18.92;;;13.68;;
26540;SDS011;14206;50.202;10.948;2024-03-06T04:58:11;19.13;;;13.93;;
26540;SDS011;14206;50.202;10.948;2024-03-06T05:00:38;19.60;;;12.90;;
26540;SDS011;14206;50.202;10.948;2024-03-06T05:03:13;20.30;;;13.57;;
26540;SDS011;14206;50.202;10.948;2024-03-06T05:05:59;19.90;;;13.77;;
26540;SDS011;14206;50.202;10.948;2024-03-06T05:08:43;17.87;;;12.90;;
26540;SDS011;14206;50.202;10.948;2024-03-06T05:11:27;22.55;;;15.02;;
26540;SDS011;14206;50.202;10.948;2024-03-06T05:14:12;19.42;;;13.32;;
26540;SDS011;14206;50.202;10.948;2024-03-06T05:16:56;17.48;;;12.60;;
26540;SDS011;14206;50.202;10.948;2024-03-06T05:19:40;20.23;;;13.47;;
26540;SDS011;14206;50.202;10.948;2024-03-06T05:22:25;17.90;;;12.63;;
26540;SDS011;14206;50.202;10.948;2024-03-06T05:25:10;16.85;;;12.05;;
26540;SDS011;14206;50.202;10.948;2024-03-06T05:27:54;15.93;;;11.48;;
26540;SDS011;14206;50.202;10.948;2024-03-06T05:30:38;16.60;;;11.77;;
26540;SDS011;14206;50.202;10.948;2024-03-06T05:33:23;16.25;;;11.55;;
26540;SDS011;14206;50.202;10.948;2024-03-06T05:36:07;18.63;;;13.10;;
26540;SDS011;14206;50.202;10.948;2024-03-06T05:38:51;18.17;;;12.60;;
26540;SDS011;14206;50.202;10.948;2024-03-06T05:41:36;20.55;;;13.88;;
26540;SDS011;14206;50.202;10.948;2024-03-06T05:44:20;18.02;;;12.43;;
26540;SDS011;14206;50.202;10.948;2024-03-06T05:47:05;17.10;;;12.83;;
26540;SDS011;14206;50.202;10.948;2024-03-06T05:49:50;18.83;;;13.80;;
26540;SDS011;14206;50.202;10.948;2024-03-06T05:52:35;19.45;;;13.85;;
26540;SDS011;14206;50.202;10.948;2024-03-06T05:55:19;17.92;;;13.00;;
26540;SDS011;14206;50.202;10.948;2024-03-06T05:58:04;18.08;;;13.18;;
26540;SDS011;14206;50.202;10.948;2024-03-06T06:00:37;17.13;;;12.35;;
26540;SDS011;14206;50.202;10.948;2024-03-06T06:03:04;17.05;;;11.82;;
26540;SDS011;14206;50.202;10.948;2024-03-06T06:05:31;18.33;;;13.02;;
26540;SDS011;14206;50.202;10.948;2024-03-06T06:07:58;20.38;;;13.93;;
26540;SDS011;14206;50.202;10.948;2024-03-06T06:10:25;18.60;;;13.35;;
26540;SDS011;14206;50.202;10.948;2024-03-06T06:12:52;23.08;;;16.05;;
26540;SDS011;14206;50.202;10.948;2024-03-06T06:15:19;23.60;;;15.32;;
26540;SDS011;14206;50.202;10.948;2024-03-06T06:17:46;23.17;;;15.68;;
26540;SDS011;14206;50.202;10.948;2024-03-06T06:20:13;22.60;;;14.93;;
26540;SDS011;14206;50.202;10.948;2024-03-06T06:22:43;21.05;;;14.85;;
26540;SDS011;14206;50.202;10.948;2024-03-06T06:25:10;25.40;;;16.83;;
26540;SDS011;14206;50.202;10.948;2024-03-06T06:27:38;24.23;;;15.98;;
26540;SDS011;14206;50.202;10.948;2024-03-06T06:30:07;27.58;;;18.02;;
26540;SDS011;14206;50.202;10.948;2024-03-06T06:32:39;25.05;;;16.83;;
26540;SDS011;14206;50.202;10.948;2024-03-06T06:35:08;27.67;;;19.25;;
26540;SDS011;14206;50.202;10.948;2024-03-06T06:37:40;26.27;;;18.20;;
26540;SDS011;14206;50.202;10.948;2024-03-06T06:40:07;24.90;;;16.52;;
26540;SDS011;14206;50.202;10.948;2024-03-06T06:42:35;24.50;;;16.80;;
26540;SDS011;14206;50.202;10.948;2024-03-06T06:45:02;27.65;;;19.08;;
26540;SDS011;14206;50.202;10.948;2024-03-06T06:47:29;25.77;;;18.00;;
26540;SDS011;14206;50.202;10.948;2024-03-06T06:49:56;25.90;;;17.85;;
26540;SDS011;14206;50.202;10.948;2024-03-06T06:52:23;22.30;;;16.15;;
26540;SDS011;14206;50.202;10.948;2024-03-06T06:54:50;22.85;;;15.48;;
26540;SDS011;14206;50.202;10.948;2024-03-06T06:57:17;27.27;;;18.60;;
26540;SDS011;14206;50.202;10.948;2024-03-06T06:59:44;28.70;;;19.27;;
26540;SDS011;14206;50.202;10.948;2024-03-06T07:02:11;24.95;;;17.17;;
26540;SDS011;14206;50.202;10.948;2024-03-06T07:04:38;27.85;;;19.35;;
26540;SDS011;14206;50.202;10.948;2024-03-06T07:07:05;26.58;;;17.90;;
26540;SDS011;14206;50.202;10.948;2024-03-06T07:09:32;28.10;;;19.00;;
26540;SDS011;14206;50.202;10.948;2024-03-06T07:12:00;27.65;;;18.40;;
26540;SDS011;14206;50.202;10.948;2024-03-06T07:14:27;28.98;;;19.70;;
26540;SDS011;14206;50.202;10.948;2024-03-06T07:16:54;26.20;;;17.20;;
26540;SDS011;14206;50.202;10.948;2024-03-06T07:19:21;22.65;;;16.10;;
26540;SDS011;14206;50.202;10.948;2024-03-06T07:21:48;25.40;;;16.42;;
26540;SDS011;14206;50.202;10.948;2024-03-06T07:24:14;23.30;;;15.88;;
26540;SDS011;14206;50.202;10.948;2024-03-06T07:26:41;23.25;;;16.10;;
26540;SDS011;14206;50.202;10.948;2024-03-06T07:29:09;21.42;;;14.85;;
26540;SDS011;14206;50.202;10.948;2024-03-06T07:31:41;21.00;;;14.50;;
26540;SDS011;14206;50.202;10.948;2024-03-06T07:34:08;24.83;;;17.08;;
26540;SDS011;14206;50.202;10.948;2024-03-06T07:36:37;23.75;;;15.35;;
26540;SDS011;14206;50.202;10.948;2024-03-06T07:39:04;24.13;;;15.85;;
26540;SDS011;14206;50.202;10.948;2024-03-06T07:41:31;27.20;;;17.77;;
26540;SDS011;14206;50.202;10.948;2024-03-06T07:44:02;25.77;;;17.23;;
26540;SDS011;14206;50.202;10.948;2024-03-06T07:46:29;25.27;;;16.15;;
26540;SDS011;14206;50.202;10.948;2024-03-06T07:48:56;24.90;;;16.15;;
26540;SDS011;14206;50.202;10.948;2024-03-06T07:51:23;23.83;;;15.80;;
26540;SDS011;14206;50.202;10.948;2024-03-06T07:53:50;24.13;;;15.75;;
26540;SDS011;14206;50.202;10.948;2024-03-06T07:56:17;24.55;;;16.50;;
26540;SDS011;14206;50.202;10.948;2024-03-06T07:58:44;26.17;;;16.58;;
26540;SDS011;14206;50.202;10.948;2024-03-06T08:01:11;27.77;;;18.05;;
26540;SDS011;14206;50.202;10.948;2024-03-06T08:03:39;23.15;;;15.73;;
26540;SDS011;14206;50.202;10.948;2024-03-06T08:06:07;24.40;;;15.65;;
26540;SDS011;14206;50.202;10.948;2024-03-06T08:08:35;21.48;;;14.25;;
26540;SDS011;14206;50.202;10.948;2024-03-06T08:11:02;25.00;;;16.48;;
26540;SDS011;14206;50.202;10.948;2024-03-06T08:13:30;23.90;;;15.55;;
26540;SDS011;14206;50.202;10.948;2024-03-06T08:15:57;21.58;;;14.52;;
26540;SDS011;14206;50.202;10.948;2024-03-06T08:18:24;22.42;;;14.80;;
26540;SDS011;14206;50.202;10.948;2024-03-06T08:20:51;23.40;;;14.77;;
26540;SDS011;14206;50.202;10.948;2024-03-06T08:23:19;23.80;;;14.65;;
26540;SDS011;14206;50.202;10.948;2024-03-06T08:25:46;23.45;;;15.52;;
26540;SDS011;14206;50.202;10.948;2024-03-06T08:28:13;26.17;;;16.88;;
26540;SDS011;14206;50.202;10.948;2024-03-06T08:30:40;25.63;;;15.82;;
26540;SDS011;14206;50.202;10.948;2024-03-06T08:33:07;25.05;;;15.55;;
26540;SDS011;14206;50.202;10.948;2024-03-06T08:35:34;20.23;;;13.63;;
26540;SDS011;14206;50.202;10.948;2024-03-06T08:38:02;27.10;;;17.00;;
26540;SDS011;14206;50.202;10.948;2024-03-06T08:40:30;22.45;;;14.30;;
26540;SDS011;14206;50.202;10.948;2024-03-06T08:42:57;24.48;;;16.23;;
26540;SDS011;14206;50.202;10.948;2024-03-06T08:45:24;25.65;;;16.83;;
26540;SDS011;14206;50.202;10.948;2024-03-06T08:47:51;23.33;;;15.38;;
26540;SDS011;14206;50.202;10.948;2024-03-06T08:50:20;23.08;;;15.43;;
26540;SDS011;14206;50.202;10.948;2024-03-06T08:52:47;22.85;;;14.45;;
26540;SDS011;14206;50.202;10.948;2024-03-06T08:55:14;22.60;;;14.55;;
26540;SDS011;14206;50.202;10.948;2024-03-06T08:57:41;21.88;;;14.02;;
26540;SDS011;14206;50.202;10.948;2024-03-06T09:00:08;23.10;;;15.35;;
26540;SDS011;14206;50.202;10.948;2024-03-06T09:02:38;24.00;;;15.75;;
26540;SDS011;14206;50.202;10.948;2024-03-06T09:05:07;23.67;;;15.18;;
26540;SDS011;14206;50.202;10.948;2024-03-06T09:07:36;24.08;;;16.02;;
26540;SDS011;14206;50.202;10.948;2024-03-06T09:10:04;26.73;;;17.40;;
26540;SDS011;14206;50.202;10.948;2024-03-06T09:12:32;24.98;;;16.90;;
26540;SDS011;14206;50.202;10.948;2024-03-06T09:14:59;25.73;;;16.92;;
26540;SDS011;14206;50.202;10.948;2024-03-06T09:17:26;22.92;;;15.10;;
26540;SDS011;14206;50.202;10.948;2024-03-06T09:19:54;22.33;;;15.00;;
26540;SDS011;14206;50.202;10.948;2024-03-06T09:22:35;20.38;;;14.57;;
26540;SDS011;14206;50.202;10.948;2024-03-06T09:25:03;24.25;;;16.33;;
26540;SDS011;14206;50.202;10.948;2024-03-06T09:27:31;20.52;;;13.98;;
26540;SDS011;14206;50.202;10.948;2024-03-06T09:29:58;21.02;;;13.82;;
26540;SDS011;14206;50.202;10.948;2024-03-06T09:32:26;19.35;;;13.60;;
26540;SDS011;14206;50.202;10.948;2024-03-06T09:34:53;20.02;;;13.82;;
26540;SDS011;14206;50.202;10.948;2024-03-06T09:37:20;22.58;;;15.60;;
26540;SDS011;14206;50.202;10.948;2024-03-06T09:39:46;23.83;;;16.05;;
26540;SDS011;14206;50.202;10.948;2024-03-06T09:42:16;20.45;;;14.05;;
26540;SDS011;14206;50.202;10.948;2024-03-06T09:44:43;18.80;;;13.52;;
26540;SDS011;14206;50.202;10.948;2024-03-06T09:47:13;22.90;;;15.57;;
26540;SDS011;14206;50.202;10.948;2024-03-06T09:49:43;21.60;;;15.07;;
26540;SDS011;14206;50.202;10.948;2024-03-06T09:52:10;21.08;;;14.90;;
26540;SDS011;14206;50.202;10.948;2024-03-06T09:54:37;20.48;;;14.00;;
26540;SDS011;14206;50.202;10.948;2024-03-06T09:57:08;19.65;;;13.93;;
26540;SDS011;14206;50.202;10.948;2024-03-06T09:59:34;19.17;;;13.70;;
26540;SDS011;14206;50.202;10.948;2024-03-06T10:02:01;17.42;;;12.75;;
26540;SDS011;14206;50.202;10.948;2024-03-06T10:04:39;18.08;;;13.30;;
26540;SDS011;14206;50.202;10.948;2024-03-06T10:07:06;16.85;;;12.65;;
26540;SDS011;14206;50.202;10.948;2024-03-06T10:09:34;15.02;;;10.63;;
26540;SDS011;14206;50.202;10.948;2024-03-06T10:12:01;21.65;;;15.32;;
26540;SDS011;14206;50.202;10.948;2024-03-06T10:14:32;21.65;;;14.27;;
26540;SDS011;14206;50.202;10.948;2024-03-06T10:16:59;18.67;;;13.77;;
26540;SDS011;14206;50.202;10.948;2024-03-06T10:19:28;20.10;;;14.93;;
26540;SDS011;14206;50.202;10.948;2024-03-06T10:21:56;24.42;;;16.15;;
26540;SDS011;14206;50.202;10.948;2024-03-06T10:24:25;22.23;;;14.27;;
26540;SDS011;14206;50.202;10.948;2024-03-06T10:26:56;19.40;;;13.40;;
26540;SDS011;14206;50.202;10.948;2024-03-06T10:29:28;17.08;;;11.60;;
26540;SDS011;14206;50.202;10.948;2024-03-06T10:31:56;22.67;;;14.20;;
26540;SDS011;14206;50.202;10.948;2024-03-06T10:34:25;16.80;;;12.32;;
26540;SDS011;14206;50.202;10.948;2024-03-06T10:37:02;16.52;;;11.98;;
26540;SDS011;14206;50.202;10.948;2024-03-06T10:39:33;17.15;;;12.73;;
26540;SDS011;14206;50.202;10.948;2024-03-06T10:42:02;19.45;;;13.88;;
26540;SDS011;14206;50.202;10.948;2024-03-06T10:44:31;17.42;;;12.77;;
26540;SDS011;14206;50.202;10.948;2024-03-06T10:47:01;16.88;;;12.45;;
26540;SDS011;14206;50.202;10.948;2024-03-06T10:49:30;17.13;;;11.82;;
26540;SDS011;14206;50.202;10.948;2024-03-06T10:52:02;17.42;;;12.07;;
26540;SDS011;14206;50.202;10.948;2024-03-06T10:54:34;19.08;;;13.63;;
26540;SDS011;14206;50.202;10.948;2024-03-06T10:57:03;19.65;;;13.60;;
26540;SDS011;14206;50.202;10.948;2024-03-06T10:59:30;16.60;;;11.90;;
26540;SDS011;14206;50.202;10.948;2024-03-06T11:01:58;18.30;;;12.30;;
26540;SDS011;14206;50.202;10.948;2024-03-06T11:04:31;17.17;;;12.00;;
26540;SDS011;14206;50.202;10.948;2024-03-06T11:07:01;18.15;;;13.00;;
26540;SDS011;14206;50.202;10.948;2024-03-06T11:09:33;16.70;;;11.65;;
26540;SDS011;14206;50.202;10.948;2024-03-06T11:12:07;21.40;;;14.48;;
26540;SDS011;14206;50.202;10.948;2024-03-06T11:14:38;21.15;;;15.13;;
26540;SDS011;14206;50.202;10.948;2024-03-06T11:17:08;22.05;;;15.23;;
26540;SDS011;14206;50.202;10.948;2024-03-06T11:28:31;18.55;;;12.88;;
26540;SDS011;14206;50.202;10.948;2024-03-06T11:31:01;19.60;;;12.68;;
26540;SDS011;14206;50.202;10.948;2024-03-06T11:33:45;18.35;;;13.32;;
26540;SDS011;14206;50.202;10.948;2024-03-06T11:38:41;22.10;;;15.13;;
26540;SDS011;14206;50.202;10.948;2024-03-06T11:41:09;20.77;;;13.82;;
26540;SDS011;14206;50.202;10.948;2024-03-06T11:43:42;18.02;;;12.27;;
26540;SDS011;14206;50.202;10.948;2024-03-06T11:46:09;17.40;;;12.40;;
26540;SDS011;14206;50.202;10.948;2024-03-06T11:48:37;18.60;;;13.32;;
26540;SDS011;14206;50.202;10.948;2024-03-06T11:51:04;17.10;;;12.23;;
26540;SDS011;14206;50.202;10.948;2024-03-06T11:53:35;19.85;;;13.68;;
26540;SDS011;14206;50.202;10.948;2024-03-06T11:56:05;19.90;;;13.90;;
26540;SDS011;14206;50.202;10.948;2024-03-06T11:58:34;20.20;;;13.20;;
26540;SDS011;14206;50.202;10.948;2024-03-06T12:01:01;18.05;;;12.20;;
26540;SDS011;14206;50.202;10.948;2024-03-06T12:03:28;17.23;;;11.98;;
26540;SDS011;14206;50.202;10.948;2024-03-06T12:05:55;17.02;;;11.45;;
26540;SDS011;14206;50.202;10.948;2024-03-06T12:08:22;17.10;;;11.48;;
26540;SDS011;14206;50.202;10.948;2024-03-06T12:10:50;21.33;;;13.60;;
26540;SDS011;14206;50.202;10.948;2024-03-06T12:13:18;20.08;;;13.25;;
26540;SDS011;14206;50.202;10.948;2024-03-06T12:15:47;20.30;;;11.90;;
26540;SDS011;14206;50.202;10.948;2024-03-06T12:18:16;19.33;;;13.00;;
26540;SDS011;14206;50.202;10.948;2024-03-06T12:20:46;22.95;;;14.40;;
26540;SDS011;14206;50.202;10.948;2024-03-06T12:23:20;18.30;;;12.73;;
26540;SDS011;14206;50.202;10.948;2024-03-06T12:26:09;19.63;;;12.65;;
26540;SDS011;14206;50.202;10.948;2024-03-06T12:28:38;24.08;;;15.27;;
26540;SDS011;14206;50.202;10.948;2024-03-06T12:31:06;20.92;;;12.35;;
26540;SDS011;14206;50.202;10.948;2024-03-06T12:33:34;22.20;;;14.35;;
26540;SDS011;14206;50.202;10.948;2024-03-06T12:36:08;19.98;;;13.13;;
26540;SDS011;14206;50.202;10.948;2024-03-06T12:38:38;20.85;;;13.15;;
26540;SDS011;14206;50.202;10.948;2024-03-06T12:41:06;22.88;;;14.05;;
26540;SDS011;14206;50.202;10.948;2024-03-06T12:43:32;20.27;;;13.57;;
26540;SDS011;14206;50.202;10.948;2024-03-06T12:46:01;19.60;;;13.27;;
26540;SDS011;14206;50.202;10.948;2024-03-06T12:48:31;17.17;;;11.20;;
26540;SDS011;14206;50.202;10.948;2024-03-06T12:50:59;18.63;;;11.65;;
26540;SDS011;14206;50.202;10.948;2024-03-06T12:53:31;21.73;;;14.57;;
26540;SDS011;14206;50.202;10.948;2024-03-06T12:56:02;18.92;;;13.25;;
26540;SDS011;14206;50.202;10.948;2024-03-06T12:58:30;16.73;;;11.45;;
26540;SDS011;14206;50.202;10.948;2024-03-06T13:01:02;19.50;;;12.95;;
26540;SDS011;14206;50.202;10.948;2024-03-06T13:03:29;16.05;;;10.90;;
26540;SDS011;14206;50.202;10.948;2024-03-06T13:05:56;21.55;;;13.48;;
26540;SDS011;14206;50.202;10.948;2024-03-06T13:08:23;18.17;;;12.80;;
26540;SDS011;14206;50.202;10.948;2024-03-06T13:10:50;19.73;;;12.60;;
26540;SDS011;14206;50.202;10.948;2024-03-06T13:13:17;19.17;;;11.98;;
26540;SDS011;14206;50.202;10.948;2024-03-06T13:15:44;15.85;;;11.07;;
26540;SDS011;14206;50.202;10.948;2024-03-06T13:18:12;18.58;;;12.55;;
26540;SDS011;14206;50.202;10.948;2024-03-06T13:20:39;18.17;;;12.30;;
26540;SDS011;14206;50.202;10.948;2024-03-06T13:23:07;16.63;;;11.55;;
26540;SDS011;14206;50.202;10.948;2024-03-06T13:25:34;17.67;;;13.20;;
26540;SDS011;14206;50.202;10.948;2024-03-06T13:28:00;17.80;;;12.48;;
26540;SDS011;14206;50.202;10.948;2024-03-06T13:30:28;18.52;;;12.35;;
26540;SDS011;14206;50.202;10.948;2024-03-06T13:32:55;16.52;;;11.48;;
26540;SDS011;14206;50.202;10.948;2024-03-06T13:35:23;16.15;;;11.48;;
26540;SDS011;14206;50.202;10.948;2024-03-06T13:37:49;14.85;;;9.95;;
26540;SDS011;14206;50.202;10.948;2024-03-06T13:40:16;14.48;;;10.10;;
26540;SDS011;14206;50.202;10.948;2024-03-06T13:42:43;15.68;;;10.70;;
26540;SDS011;14206;50.202;10.948;2024-03-06T13:45:10;14.02;;;10.10;;
26540;SDS011;14206;50.202;10.948;2024-03-06T13:47:41;15.50;;;10.63;;
26540;SDS011;14206;50.202;10.948;2024-03-06T13:50:15;14.50;;;9.73;;
26540;SDS011;14206;50.202;10.948;2024-03-06T13:52:43;14.03;;;10.53;;
26540;SDS011;14206;50.202;10.948;2024-03-06T13:55:10;11.30;;;8.10;;
26540;SDS011;14206;50.202;10.948;2024-03-06T13:57:37;13.52;;;9.25;;
26540;SDS011;14206;50.202;10.948;2024-03-06T14:00:07;14.98;;;10.35;;
26540;SDS011;14206;50.202;10.948;2024-03-06T14:02:39;15.70;;;10.30;;
26540;SDS011;14206;50.202;10.948;2024-03-06T14:05:06;16.90;;;11.73;;
26540;SDS011;14206;50.202;10.948;2024-03-06T14:07:34;13.68;;;9.52;;
26540;SDS011;14206;50.202;10.948;2024-03-06T14:10:01;13.32;;;9.43;;
26540;SDS011;14206;50.202;10.948;2024-03-06T14:12:31;16.02;;;10.55;;
26540;SDS011;14206;50.202;10.948;2024-03-06T14:14:59;17.23;;;11.20;;
26540;SDS011;14206;50.202;10.948;2024-03-06T14:17:25;16.42;;;11.55;;
26540;SDS011;14206;50.202;10.948;2024-03-06T14:19:58;14.60;;;9.43;;
26540;SDS011;14206;50.202;10.948;2024-03-06T14:22:25;13.60;;;10.00;;
26540;SDS011;14206;50.202;10.948;2024-03-06T14:24:52;15.90;;;11.07;;
26540;SDS011;14206;50.202;10.948;2024-03-06T14:27:19;15.88;;;11.48;;
26540;SDS011;14206;50.202;10.948;2024-03-06T14:29:46;16.95;;;11.27;;
26540;SDS011;14206;50.202;10.948;2024-03-06T14:32:14;16.58;;;11.75;;
26540;SDS011;14206;50.202;10.948;2024-03-06T14:34:44;15.95;;;11.10;;